sensor_id;sensor_type;location;lat;lon;timestamp;pressure;altitude;pressure_sealevel;temperature;humidity
60337;BME280;46978;50.288;28.624;2023-04-19T00:00:52;98912.65;;;7.07;81.06
60337;BME280;46978;50.288;28.624;2023-04-19T00:01:53;98910.06;;;7.07;80.54
60337;BME280;46978;50.288;28.624;2023-04-19T00:02:55;98913.49;;;7.08;80.68
60337;BME280;46978;50.288;28.624;2023-04-19T00:03:57;98900.61;;;7.06;80.57
60337;BME280;46978;50.288;28.624;2023-04-19T00:04:58;98914.39;;;7.07;80.68
60337;BME280;46978;50.288;28.624;2023-04-19T00:06:00;98903.19;;;7.06;80.47
60337;BME280;46978;50.288;28.624;2023-04-19T00:07:02;98916.95;;;7.08;80.37
60337;BME280;46978;50.288;28.624;2023-04-19T00:08:04;98910.05;;;7.09;80.30
60337;BME280;46978;50.288;28.624;2023-04-19T00:09:07;98905.75;;;7.08;79.87
60337;BME280;46978;50.288;28.624;2023-04-19T00:10:09;98902.33;;;7.07;79.78
60337;BME280;46978;50.288;28.624;2023-04-19T00:11:11;98908.33;;;7.08;79.11
60337;BME280;46978;50.288;28.624;2023-04-19T00:12:13;98905.75;;;7.08;78.68
60337;BME280;46978;50.288;28.624;2023-04-19T00:13:16;98908.31;;;7.09;77.75
60337;BME280;46978;50.288;28.624;2023-04-19T00:14:18;98910.87;;;7.11;78.88
60337;BME280;46978;50.288;28.624;2023-04-19T00:15:20;98905.72;;;7.11;78.55
60337;BME280;46978;50.288;28.624;2023-04-19T00:16:21;98908.30;;;7.11;78.60
60337;BME280;46978;50.288;28.624;2023-04-19T00:17:23;98907.44;;;7.12;78.16
60337;BME280;46978;50.288;28.624;2023-04-19T00:18:25;98910.86;;;7.12;78.15
60337;BME280;46978;50.288;28.624;2023-04-19T00:19:26;98901.44;;;7.11;77.46
60337;BME280;46978;50.288;28.624;2023-04-19T00:20:28;98902.26;;;7.13;77.06
60337;BME280;46978;50.288;28.624;2023-04-19T00:21:30;98901.39;;;7.14;77.31
60337;BME280;46978;50.288;28.624;2023-04-19T00:22:32;98899.66;;;7.15;77.37
60337;BME280;46978;50.288;28.624;2023-04-19T00:23:34;98897.09;;;7.13;77.52
60337;BME280;46978;50.288;28.624;2023-04-19T00:24:35;98897.09;;;7.13;77.52
60337;BME280;46978;50.288;28.624;2023-04-19T00:25:37;98903.96;;;7.16;77.44
60337;BME280;46978;50.288;28.624;2023-04-19T00:26:39;98898.78;;;7.17;77.41
60337;BME280;46978;50.288;28.624;2023-04-19T00:27:40;98895.33;;;7.17;77.35
60337;BME280;46978;50.288;28.624;2023-04-19T00:28:42;98894.45;;;7.20;77.43
60337;BME280;46978;50.288;28.624;2023-04-19T00:29:44;98893.63;;;7.17;77.47
60337;BME280;46978;50.288;28.624;2023-04-19T00:30:45;98891.04;;;7.17;77.42
60337;BME280;46978;50.288;28.624;2023-04-19T00:31:47;98889.32;;;7.16;77.11
60337;BME280;46978;50.288;28.624;2023-04-19T00:32:49;98895.33;;;7.17;77.04
60337;BME280;46978;50.288;28.624;2023-04-19T00:33:50;98893.64;;;7.16;77.11
60337;BME280;46978;50.288;28.624;2023-04-19T00:34:52;98891.06;;;7.16;77.29
60337;BME280;46978;50.288;28.624;2023-04-19T00:35:56;98897.94;;;7.14;77.03
60337;BME280;46978;50.288;28.624;2023-04-19T00:36:57;98897.09;;;7.13;76.72
60337;BME280;46978;50.288;28.624;2023-04-19T00:37:59;98901.39;;;7.14;77.27
60337;BME280;46978;50.288;28.624;2023-04-19T00:39:00;98897.08;;;7.15;76.36
60337;BME280;46978;50.288;28.624;2023-04-19T00:40:05;98893.64;;;7.16;76.63
60337;BME280;46978;50.288;28.624;2023-04-19T00:41:07;98897.92;;;7.15;76.91
60337;BME280;46978;50.288;28.624;2023-04-19T00:42:08;98891.91;;;7.16;76.96
60337;BME280;46978;50.288;28.624;2023-04-19T00:43:10;98894.50;;;7.15;76.74
60337;BME280;46978;50.288;28.624;2023-04-19T00:44:11;98896.20;;;7.17;76.56
60337;BME280;46978;50.288;28.624;2023-04-19T00:45:13;98891.91;;;7.16;76.96
60337;BME280;46978;50.288;28.624;2023-04-19T00:46:15;98897.06;;;7.16;76.87
60337;BME280;46978;50.288;28.624;2023-04-19T00:47:16;98900.52;;;7.14;76.89
60337;BME280;46978;50.288;28.624;2023-04-19T00:48:18;98891.92;;;7.15;77.17
60337;BME280;46978;50.288;28.624;2023-04-19T00:49:21;98895.36;;;7.14;77.37
60337;BME280;46978;50.288;28.624;2023-04-19T00:50:24;98890.22;;;7.12;77.30
60337;BME280;46978;50.288;28.624;2023-04-19T00:51:26;98885.08;;;7.11;77.67
60337;BME280;46978;50.288;28.624;2023-04-19T00:52:28;98890.23;;;7.11;76.50
60337;BME280;46978;50.288;28.624;2023-04-19T00:53:30;98885.95;;;7.11;76.91
60337;BME280;46978;50.288;28.624;2023-04-19T00:54:32;98889.39;;;7.10;77.14
60337;BME280;46978;50.288;28.624;2023-04-19T00:55:34;98883.39;;;7.10;77.16
60337;BME280;46978;50.288;28.624;2023-04-19T00:56:36;98882.52;;;7.09;77.18
60337;BME280;46978;50.288;28.624;2023-04-19T00:57:37;98886.83;;;7.09;77.38
60337;BME280;46978;50.288;28.624;2023-04-19T00:58:39;98885.11;;;7.08;77.42
60337;BME280;46978;50.288;28.624;2023-04-19T00:59:41;98881.70;;;7.06;77.70
60337;BME280;46978;50.288;28.624;2023-04-19T01:00:43;98879.14;;;7.04;78.02
60337;BME280;46978;50.288;28.624;2023-04-19T01:01:45;98874.86;;;7.02;78.21
60337;BME280;46978;50.288;28.624;2023-04-19T01:02:46;98881.78;;;6.99;78.52
60337;BME280;46978;50.288;28.624;2023-04-19T01:03:48;98874.06;;;6.98;78.28
60337;BME280;46978;50.288;28.624;2023-04-19T01:04:50;98876.66;;;6.96;78.58
60337;BME280;46978;50.288;28.624;2023-04-19T01:05:52;98874.94;;;6.95;78.80
60337;BME280;46978;50.288;28.624;2023-04-19T01:06:54;98877.53;;;6.94;78.70
60337;BME280;46978;50.288;28.624;2023-04-19T01:07:56;98878.42;;;6.93;78.85
60337;BME280;46978;50.288;28.624;2023-04-19T01:08:57;98877.53;;;6.94;78.80
60337;BME280;46978;50.288;28.624;2023-04-19T01:09:59;98876.69;;;6.93;79.14
60337;BME280;46978;50.288;28.624;2023-04-19T01:11:01;98877.55;;;6.92;79.14
60337;BME280;46978;50.288;28.624;2023-04-19T01:12:04;98878.44;;;6.91;79.39
60337;BME280;46978;50.288;28.624;2023-04-19T01:13:05;98874.98;;;6.91;79.43
60337;BME280;46978;50.288;28.624;2023-04-19T01:14:07;98875.00;;;6.89;79.41
60337;BME280;46978;50.288;28.624;2023-04-19T01:15:09;98872.42;;;6.89;79.58
60337;BME280;46978;50.288;28.624;2023-04-19T01:16:11;98870.76;;;6.87;79.73
60337;BME280;46978;50.288;28.624;2023-04-19T01:17:13;98863.88;;;6.86;79.46
60337;BME280;46978;50.288;28.624;2023-04-19T01:18:15;98865.62;;;6.85;79.88
60337;BME280;46978;50.288;28.624;2023-04-19T01:19:17;98862.17;;;6.83;79.95
60337;BME280;46978;50.288;28.624;2023-04-19T01:20:19;98863.91;;;6.82;80.23
60337;BME280;46978;50.288;28.624;2023-04-19T01:21:20;98863.93;;;6.81;80.37
60337;BME280;46978;50.288;28.624;2023-04-19T01:22:22;98864.79;;;6.80;80.66
60337;BME280;46978;50.288;28.624;2023-04-19T01:23:25;98862.23;;;6.78;80.81
60337;BME280;46978;50.288;28.624;2023-04-19T01:24:27;98852.82;;;6.76;80.70
60337;BME280;46978;50.288;28.624;2023-04-19T01:25:28;98858.84;;;6.75;80.84
60337;BME280;46978;50.288;28.624;2023-04-19T01:26:30;98862.27;;;6.75;80.86
60337;BME280;46978;50.288;28.624;2023-04-19T01:27:32;98859.70;;;6.74;81.08
60337;BME280;46978;50.288;28.624;2023-04-19T01:28:33;98860.61;;;6.71;81.46
60337;BME280;46978;50.288;28.624;2023-04-19T01:29:35;98863.19;;;6.71;81.23
60337;BME280;46978;50.288;28.624;2023-04-19T01:30:37;98861.47;;;6.70;81.39
60337;BME280;46978;50.288;28.624;2023-04-19T01:31:39;98862.33;;;6.69;81.28
60337;BME280;46978;50.288;28.624;2023-04-19T01:32:42;98856.33;;;6.69;81.35
60337;BME280;46978;50.288;28.624;2023-04-19T01:33:43;98860.63;;;6.70;81.44
60337;BME280;46978;50.288;28.624;2023-04-19T01:34:46;98858.91;;;6.69;81.93
60337;BME280;46978;50.288;28.624;2023-04-19T01:35:48;98860.66;;;6.67;81.78
60337;BME280;46978;50.288;28.624;2023-04-19T01:36:50;98848.64;;;6.64;81.96
60337;BME280;46978;50.288;28.624;2023-04-19T01:37:52;98852.95;;;6.63;81.94
60337;BME280;46978;50.288;28.624;2023-04-19T01:38:55;98854.66;;;6.63;82.07
60337;BME280;46978;50.288;28.624;2023-04-19T01:39:57;98849.52;;;6.61;82.02
60337;BME280;46978;50.288;28.624;2023-04-19T01:40:59;98856.41;;;6.61;82.26
60337;BME280;46978;50.288;28.624;2023-04-19T01:42:00;98852.16;;;6.58;82.31
60337;BME280;46978;50.288;28.624;2023-04-19T01:43:02;98847.02;;;6.57;82.19
60337;BME280;46978;50.288;28.624;2023-04-19T01:44:04;98851.30;;;6.56;82.35
60337;BME280;46978;50.288;28.624;2023-04-19T01:45:06;98840.16;;;6.54;81.93
60337;BME280;46978;50.288;28.624;2023-04-19T01:46:08;98845.31;;;6.54;82.18
60337;BME280;46978;50.288;28.624;2023-04-19T01:47:10;98847.05;;;6.54;82.09
60337;BME280;46978;50.288;28.624;2023-04-19T01:48:12;98840.19;;;6.51;82.07
60337;BME280;46978;50.288;28.624;2023-04-19T01:49:15;98835.89;;;6.50;81.91
60337;BME280;46978;50.288;28.624;2023-04-19T01:50:17;98840.20;;;6.50;82.19
60337;BME280;46978;50.288;28.624;2023-04-19T01:51:19;98843.64;;;6.49;81.96
60337;BME280;46978;50.288;28.624;2023-04-19T01:52:21;98833.34;;;6.47;82.20
60337;BME280;46978;50.288;28.624;2023-04-19T01:53:23;98836.81;;;6.46;82.11
60337;BME280;46978;50.288;28.624;2023-04-19T01:54:24;98835.92;;;6.47;82.13
60337;BME280;46978;50.288;28.624;2023-04-19T01:55:26;98835.92;;;6.47;82.17
60337;BME280;46978;50.288;28.624;2023-04-19T01:56:27;98830.78;;;6.45;82.19
60337;BME280;46978;50.288;28.624;2023-04-19T01:57:29;98835.09;;;6.45;82.19
60337;BME280;46978;50.288;28.624;2023-04-19T01:58:31;98830.78;;;6.45;82.13
60337;BME280;46978;50.288;28.624;2023-04-19T01:59:32;98826.50;;;6.46;81.69
60337;BME280;46978;50.288;28.624;2023-04-19T02:00:34;98825.63;;;6.45;81.81
60337;BME280;46978;50.288;28.624;2023-04-19T02:01:36;98823.92;;;6.46;81.65
60337;BME280;46978;50.288;28.624;2023-04-19T02:02:37;98829.94;;;6.45;81.31
60337;BME280;46978;50.288;28.624;2023-04-19T02:03:39;98833.38;;;6.44;81.27
60337;BME280;46978;50.288;28.624;2023-04-19T02:04:41;98826.52;;;6.44;81.39
60337;BME280;46978;50.288;28.624;2023-04-19T02:05:42;98832.53;;;6.43;81.94
60337;BME280;46978;50.288;28.624;2023-04-19T02:06:44;98829.14;;;6.40;82.71
60337;BME280;46978;50.288;28.624;2023-04-19T02:07:46;98824.86;;;6.37;83.81
60337;BME280;46978;50.288;28.624;2023-04-19T02:08:48;98830.91;;;6.33;85.76
60337;BME280;46978;50.288;28.624;2023-04-19T02:09:49;98834.41;;;6.27;87.01
60337;BME280;46978;50.288;28.624;2023-04-19T02:10:51;98828.44;;;6.21;87.59
60337;BME280;46978;50.288;28.624;2023-04-19T02:11:53;98824.22;;;6.15;87.58
60337;BME280;46978;50.288;28.624;2023-04-19T02:12:54;98833.67;;;6.12;87.27
60337;BME280;46978;50.288;28.624;2023-04-19T02:13:56;98830.27;;;6.09;87.24
60337;BME280;46978;50.288;28.624;2023-04-19T02:14:59;98831.14;;;6.07;86.99
60337;BME280;46978;50.288;28.624;2023-04-19T02:16:01;98829.45;;;6.06;87.35
60337;BME280;46978;50.288;28.624;2023-04-19T02:17:02;98827.74;;;6.03;87.49
60337;BME280;46978;50.288;28.624;2023-04-19T02:18:04;98832.89;;;6.03;87.38
60337;BME280;46978;50.288;28.624;2023-04-19T02:19:08;98832.06;;;6.01;87.52
60337;BME280;46978;50.288;28.624;2023-04-19T02:20:10;98827.77;;;6.00;87.25
60337;BME280;46978;50.288;28.624;2023-04-19T02:21:12;98842.37;;;6.01;87.14
60337;BME280;46978;50.288;28.624;2023-04-19T02:22:13;98837.22;;;6.01;86.89
60337;BME280;46978;50.288;28.624;2023-04-19T02:23:15;98833.75;;;6.02;87.21
60337;BME280;46978;50.288;28.624;2023-04-19T02:24:17;98838.91;;;6.02;87.13
60337;BME280;46978;50.288;28.624;2023-04-19T02:25:19;98833.75;;;6.02;87.22
60337;BME280;46978;50.288;28.624;2023-04-19T02:26:20;98839.78;;;6.03;87.37
60337;BME280;46978;50.288;28.624;2023-04-19T02:27:22;98832.05;;;6.03;87.73
60337;BME280;46978;50.288;28.624;2023-04-19T02:28:23;98833.75;;;6.02;87.65
60337;BME280;46978;50.288;28.624;2023-04-19T02:29:25;98833.75;;;6.02;87.59
60337;BME280;46978;50.288;28.624;2023-04-19T02:30:27;98829.48;;;6.03;87.57
60337;BME280;46978;50.288;28.624;2023-04-19T02:31:28;98830.32;;;6.03;87.43
60337;BME280;46978;50.288;28.624;2023-04-19T02:32:30;98826.91;;;6.03;87.38
60337;BME280;46978;50.288;28.624;2023-04-19T02:33:32;98831.16;;;6.04;87.23
60337;BME280;46978;50.288;28.624;2023-04-19T02:34:34;98830.32;;;6.03;87.06
60337;BME280;46978;50.288;28.624;2023-04-19T02:35:36;98828.58;;;6.05;86.88
60337;BME280;46978;50.288;28.624;2023-04-19T02:36:38;98830.31;;;6.05;86.71
60337;BME280;46978;50.288;28.624;2023-04-19T02:37:39;98827.70;;;6.08;86.60
60337;BME280;46978;50.288;28.624;2023-04-19T02:38:41;98823.40;;;6.08;86.60
60337;BME280;46978;50.288;28.624;2023-04-19T02:39:42;98831.09;;;6.12;86.50
60337;BME280;46978;50.288;28.624;2023-04-19T02:40:44;98825.96;;;6.10;86.12
60337;BME280;46978;50.288;28.624;2023-04-19T02:41:46;98818.23;;;6.10;87.03
60337;BME280;46978;50.288;28.624;2023-04-19T02:42:47;98819.13;;;6.09;86.53
60337;BME280;46978;50.288;28.624;2023-04-19T02:43:49;98816.55;;;6.09;86.27
60337;BME280;46978;50.288;28.624;2023-04-19T02:44:51;98817.39;;;6.09;86.34
60337;BME280;46978;50.288;28.624;2023-04-19T02:45:52;98815.66;;;6.10;86.42
60337;BME280;46978;50.288;28.624;2023-04-19T02:46:54;98817.38;;;6.11;86.32
60337;BME280;46978;50.288;28.624;2023-04-19T02:47:55;98812.21;;;6.13;86.19
60337;BME280;46978;50.288;28.624;2023-04-19T02:48:59;98819.08;;;6.14;86.28
60337;BME280;46978;50.288;28.624;2023-04-19T02:50:01;98815.60;;;6.16;86.32
60337;BME280;46978;50.288;28.624;2023-04-19T02:51:03;98812.18;;;6.16;86.56
60337;BME280;46978;50.288;28.624;2023-04-19T02:52:05;98817.33;;;6.16;86.66
60337;BME280;46978;50.288;28.624;2023-04-19T02:53:06;98816.49;;;6.15;87.11
60337;BME280;46978;50.288;28.624;2023-04-19T02:54:10;98816.49;;;6.15;87.25
60337;BME280;46978;50.288;28.624;2023-04-19T02:55:12;98814.77;;;6.14;87.68
60337;BME280;46978;50.288;28.624;2023-04-19T02:56:13;98819.92;;;6.14;88.32
60337;BME280;46978;50.288;28.624;2023-04-19T02:57:15;98819.08;;;6.14;88.30
60337;BME280;46978;50.288;28.624;2023-04-19T02:58:16;98821.66;;;6.14;88.28
60337;BME280;46978;50.288;28.624;2023-04-19T02:59:18;98819.08;;;6.14;88.23
60337;BME280;46978;50.288;28.624;2023-04-19T03:00:20;98819.06;;;6.15;88.19
60337;BME280;46978;50.288;28.624;2023-04-19T03:01:22;98819.06;;;6.15;87.97
60337;BME280;46978;50.288;28.624;2023-04-19T03:02:25;98822.47;;;6.17;87.84
60337;BME280;46978;50.288;28.624;2023-04-19T03:03:27;98819.03;;;6.20;87.57
60337;BME280;46978;50.288;28.624;2023-04-19T03:04:28;98820.72;;;6.19;87.78
60337;BME280;46978;50.288;28.624;2023-04-19T03:05:30;98819.87;;;6.20;87.48
60337;BME280;46978;50.288;28.624;2023-04-19T03:06:32;98825.00;;;6.22;86.98
60337;BME280;46978;50.288;28.624;2023-04-19T03:07:34;98824.14;;;6.24;86.85
60337;BME280;46978;50.288;28.624;2023-04-19T03:08:35;98822.39;;;6.26;86.74
60337;BME280;46978;50.288;28.624;2023-04-19T03:09:37;98824.94;;;6.30;86.57
60337;BME280;46978;50.288;28.624;2023-04-19T03:10:39;98824.92;;;6.31;86.00
60337;BME280;46978;50.288;28.624;2023-04-19T03:11:40;98822.33;;;6.33;85.87
60337;BME280;46978;50.288;28.624;2023-04-19T03:12:42;98815.42;;;6.35;85.47
60337;BME280;46978;50.288;28.624;2023-04-19T03:13:44;98818.88;;;6.35;85.11
60337;BME280;46978;50.288;28.624;2023-04-19T03:14:45;98815.40;;;6.38;84.62
60337;BME280;46978;50.288;28.624;2023-04-19T03:15:47;98816.27;;;6.38;84.65
60337;BME280;46978;50.288;28.624;2023-04-19T03:16:49;98818.83;;;6.40;84.48
60337;BME280;46978;50.288;28.624;2023-04-19T03:17:50;98823.95;;;6.43;84.10
60337;BME280;46978;50.288;28.624;2023-04-19T03:18:52;98814.48;;;6.45;83.79
60337;BME280;46978;50.288;28.624;2023-04-19T03:19:53;98814.45;;;6.48;83.24
60337;BME280;46978;50.288;28.624;2023-04-19T03:20:55;98815.29;;;6.49;83.21
60337;BME280;46978;50.288;28.624;2023-04-19T03:21:57;98816.15;;;6.51;83.07
60337;BME280;46978;50.288;28.624;2023-04-19T03:22:58;98816.12;;;6.54;82.87
60337;BME280;46978;50.288;28.624;2023-04-19T03:24:00;98812.64;;;6.55;81.66
60337;BME280;46978;50.288;28.624;2023-04-19T03:25:03;98810.95;;;6.55;82.00
60337;BME280;46978;50.288;28.624;2023-04-19T03:26:05;98810.05;;;6.56;82.08
60337;BME280;46978;50.288;28.624;2023-04-19T03:27:06;98812.64;;;6.55;81.90
60337;BME280;46978;50.288;28.624;2023-04-19T03:28:08;98808.38;;;6.54;81.62
60337;BME280;46978;50.288;28.624;2023-04-19T03:29:10;98808.37;;;6.55;81.58
60337;BME280;46978;50.288;28.624;2023-04-19T03:30:12;98812.63;;;6.56;81.70
60337;BME280;46978;50.288;28.624;2023-04-19T03:31:14;98802.32;;;6.56;81.08
60337;BME280;46978;50.288;28.624;2023-04-19T03:32:16;98802.30;;;6.58;80.88
60337;BME280;46978;50.288;28.624;2023-04-19T03:33:17;98816.89;;;6.60;80.67
60337;BME280;46978;50.288;28.624;2023-04-19T03:34:19;98795.48;;;6.55;79.89
60337;BME280;46978;50.288;28.624;2023-04-19T03:35:20;98797.06;;;6.66;79.90
60337;BME280;46978;50.288;28.624;2023-04-19T03:36:22;98802.20;;;6.67;79.81
60337;BME280;46978;50.288;28.624;2023-04-19T03:37:24;98806.50;;;6.68;78.73
60337;BME280;46978;50.288;28.624;2023-04-19T03:38:25;98803.88;;;6.71;78.92
60337;BME280;46978;50.288;28.624;2023-04-19T03:39:27;98803.84;;;6.74;78.52
60337;BME280;46978;50.288;28.624;2023-04-19T03:40:31;98813.25;;;6.77;78.60
60337;BME280;46978;50.288;28.624;2023-04-19T03:41:33;98809.80;;;6.79;77.84
60337;BME280;46978;50.288;28.624;2023-04-19T03:42:35;98805.46;;;6.81;78.40
60337;BME280;46978;50.288;28.624;2023-04-19T03:43:36;98798.58;;;6.84;78.13
60337;BME280;46978;50.288;28.624;2023-04-19T03:44:38;98798.55;;;6.87;78.04
60337;BME280;46978;50.288;28.624;2023-04-19T03:45:39;98803.69;;;6.88;77.80
60337;BME280;46978;50.288;28.624;2023-04-19T03:46:41;98801.09;;;6.90;77.48
60337;BME280;46978;50.288;28.624;2023-04-19T03:47:43;98805.31;;;6.94;77.22
60337;BME280;46978;50.288;28.624;2023-04-19T03:48:44;98804.44;;;6.96;77.51
60337;BME280;46978;50.288;28.624;2023-04-19T03:49:47;98800.98;;;6.97;77.45
60337;BME280;46978;50.288;28.624;2023-04-19T03:50:48;98803.53;;;7.00;77.61
60337;BME280;46978;50.288;28.624;2023-04-19T03:51:50;98797.48;;;7.02;77.27
60337;BME280;46978;50.288;28.624;2023-04-19T03:52:52;98801.73;;;7.06;76.91
60337;BME280;46978;50.288;28.624;2023-04-19T03:53:53;98796.53;;;7.09;76.73
60337;BME280;46978;50.288;28.624;2023-04-19T03:54:55;98800.83;;;7.10;75.97
60337;BME280;46978;50.288;28.624;2023-04-19T03:55:56;98797.34;;;7.12;76.15
60337;BME280;46978;50.288;28.624;2023-04-19T03:56:58;98796.45;;;7.15;75.93
60337;BME280;46978;50.288;28.624;2023-04-19T03:58:00;98796.45;;;7.15;75.18
60337;BME280;46978;50.288;28.624;2023-04-19T03:59:03;98793.81;;;7.20;76.07
60337;BME280;46978;50.288;28.624;2023-04-19T04:00:06;98801.55;;;7.20;75.54
60337;BME280;46978;50.288;28.624;2023-04-19T04:01:07;98803.25;;;7.22;75.84
60337;BME280;46978;50.288;28.624;2023-04-19T04:02:11;98798.05;;;7.25;75.74
60337;BME280;46978;50.288;28.624;2023-04-19T04:03:13;98798.05;;;7.25;75.74
60337;BME280;46978;50.288;28.624;2023-04-19T04:04:14;98798.89;;;7.26;76.00
60337;BME280;46978;50.288;28.624;2023-04-19T04:05:16;98802.27;;;7.29;76.17
60337;BME280;46978;50.288;28.624;2023-04-19T04:06:19;98803.14;;;7.30;76.22
60337;BME280;46978;50.288;28.624;2023-04-19T04:07:21;98801.38;;;7.32;76.26
60337;BME280;46978;50.288;28.624;2023-04-19T04:08:23;98793.64;;;7.32;76.02
60337;BME280;46978;50.288;28.624;2023-04-19T04:09:24;98797.05;;;7.34;76.06
60337;BME280;46978;50.288;28.624;2023-04-19T04:10:26;98799.63;;;7.34;75.75
60337;BME280;46978;50.288;28.624;2023-04-19T04:11:28;98802.20;;;7.34;75.70
60337;BME280;46978;50.288;28.624;2023-04-19T04:12:29;98800.48;;;7.36;75.72
60337;BME280;46978;50.288;28.624;2023-04-19T04:13:31;98794.42;;;7.37;75.35
60337;BME280;46978;50.288;28.624;2023-04-19T04:14:33;98797.90;;;7.36;75.65
60337;BME280;46978;50.288;28.624;2023-04-19T04:15:34;98805.62;;;7.38;75.56
60337;BME280;46978;50.288;28.624;2023-04-19T04:16:36;98798.73;;;7.36;75.73
60337;BME280;46978;50.288;28.624;2023-04-19T04:17:38;98798.73;;;7.36;75.47
60337;BME280;46978;50.288;28.624;2023-04-19T04:18:39;98797.02;;;7.35;75.54
60337;BME280;46978;50.288;28.624;2023-04-19T04:19:41;98804.74;;;7.37;75.14
60337;BME280;46978;50.288;28.624;2023-04-19T04:20:43;98805.62;;;7.38;75.40
60337;BME280;46978;50.288;28.624;2023-04-19T04:21:45;98803.02;;;7.39;75.70
60337;BME280;46978;50.288;28.624;2023-04-19T04:22:46;98802.14;;;7.39;75.91
60337;BME280;46978;50.288;28.624;2023-04-19T04:23:48;98809.86;;;7.40;75.67
60337;BME280;46978;50.288;28.624;2023-04-19T04:24:49;98815.02;;;7.40;75.70
60337;BME280;46978;50.288;28.624;2023-04-19T04:26:11;98803.86;;;7.40;75.35
60337;BME280;46978;50.288;28.624;2023-04-19T04:27:12;98809.00;;;7.41;75.66
60337;BME280;46978;50.288;28.624;2023-04-19T04:28:14;98800.39;;;7.42;75.65
60337;BME280;46978;50.288;28.624;2023-04-19T04:29:16;98800.39;;;7.42;75.65
60337;BME280;46978;50.288;28.624;2023-04-19T04:30:17;98799.54;;;7.40;75.86
60337;BME280;46978;50.288;28.624;2023-04-19T04:31:19;98800.39;;;7.42;76.32
60337;BME280;46978;50.288;28.624;2023-04-19T04:32:21;98801.23;;;7.43;75.99
60337;BME280;46978;50.288;28.624;2023-04-19T04:33:26;98805.55;;;7.42;75.96
60337;BME280;46978;50.288;28.624;2023-04-19T04:34:28;98809.84;;;7.42;76.21
60337;BME280;46978;50.288;28.624;2023-04-19T04:35:30;98815.00;;;7.42;76.23
60337;BME280;46978;50.288;28.624;2023-04-19T04:36:31;98815.00;;;7.42;76.39
60337;BME280;46978;50.288;28.624;2023-04-19T04:37:34;98818.44;;;7.44;76.66
60337;BME280;46978;50.288;28.624;2023-04-19T04:38:36;98808.95;;;7.44;76.70
60337;BME280;46978;50.288;28.624;2023-04-19T04:39:38;98817.54;;;7.45;76.85
60337;BME280;46978;50.288;28.624;2023-04-19T04:40:40;98814.09;;;7.46;76.95
60337;BME280;46978;50.288;28.624;2023-04-19T04:41:41;98810.67;;;7.45;77.08
60337;BME280;46978;50.288;28.624;2023-04-19T04:42:43;98805.48;;;7.47;77.11
60337;BME280;46978;50.288;28.624;2023-04-19T04:43:44;98804.61;;;7.46;77.17
60337;BME280;46978;50.288;28.624;2023-04-19T04:44:46;98807.17;;;7.48;76.85
60337;BME280;46978;50.288;28.624;2023-04-19T04:45:48;98812.34;;;7.48;77.23
60337;BME280;46978;50.288;28.624;2023-04-19T04:46:52;98811.47;;;7.49;77.05
60337;BME280;46978;50.288;28.624;2023-04-19T04:47:53;98817.47;;;7.49;77.02
60337;BME280;46978;50.288;28.624;2023-04-19T04:48:55;98817.47;;;7.49;77.40
60337;BME280;46978;50.288;28.624;2023-04-19T04:49:57;98825.20;;;7.51;77.45
60337;BME280;46978;50.288;28.624;2023-04-19T04:50:59;98817.45;;;7.51;77.41
60337;BME280;46978;50.288;28.624;2023-04-19T04:52:01;98816.59;;;7.52;77.53
60337;BME280;46978;50.288;28.624;2023-04-19T04:53:03;98818.34;;;7.50;77.38
60337;BME280;46978;50.288;28.624;2023-04-19T04:54:05;98814.01;;;7.52;77.66
60337;BME280;46978;50.288;28.624;2023-04-19T04:55:07;98808.84;;;7.52;77.50
60337;BME280;46978;50.288;28.624;2023-04-19T04:56:09;98814.85;;;7.52;77.77
60337;BME280;46978;50.288;28.624;2023-04-19T04:57:10;98812.29;;;7.51;77.79
60337;BME280;46978;50.288;28.624;2023-04-19T04:58:12;98814.03;;;7.50;78.16
60337;BME280;46978;50.288;28.624;2023-04-19T04:59:13;98810.61;;;7.50;78.80
60337;BME280;46978;50.288;28.624;2023-04-19T05:00:16;98808.87;;;7.50;78.47
60337;BME280;46978;50.288;28.624;2023-04-19T05:01:18;98798.56;;;7.49;79.15
60337;BME280;46978;50.288;28.624;2023-04-19T05:02:19;98808.09;;;7.45;79.96
60337;BME280;46978;50.288;28.624;2023-04-19T05:03:21;98801.17;;;7.47;80.03
60337;BME280;46978;50.288;28.624;2023-04-19T05:04:22;98812.29;;;7.51;80.18
60337;BME280;46978;50.288;28.624;2023-04-19T05:05:44;98807.11;;;7.52;79.85
60337;BME280;46978;50.288;28.624;2023-04-19T05:06:45;98807.06;;;7.56;81.32
60337;BME280;46978;50.288;28.624;2023-04-19T05:07:47;98805.31;;;7.59;80.60
60337;BME280;46978;50.288;28.624;2023-04-19T05:08:49;98801.05;;;7.55;81.08
60337;BME280;46978;50.288;28.624;2023-04-19T05:09:50;98798.47;;;7.55;81.56
60337;BME280;46978;50.288;28.624;2023-04-19T05:10:52;98790.70;;;7.57;81.45
60337;BME280;46978;50.288;28.624;2023-04-19T05:11:54;98798.42;;;7.58;81.11
60337;BME280;46978;50.288;28.624;2023-04-19T05:12:56;98799.31;;;7.56;82.68
60337;BME280;46978;50.288;28.624;2023-04-19T05:13:57;98800.28;;;7.50;82.76
60337;BME280;46978;50.288;28.624;2023-04-19T05:14:59;98801.09;;;7.52;83.53
60337;BME280;46978;50.288;28.624;2023-04-19T05:16:00;98793.33;;;7.53;83.60
60337;BME280;46978;50.288;28.624;2023-04-19T05:17:02;98792.52;;;7.51;83.55
60337;BME280;46978;50.288;28.624;2023-04-19T05:18:04;98789.91;;;7.53;83.75
60337;BME280;46978;50.288;28.624;2023-04-19T05:19:06;98803.63;;;7.55;84.07
60337;BME280;46978;50.288;28.624;2023-04-19T05:20:09;98802.81;;;7.53;84.21
60337;BME280;46978;50.288;28.624;2023-04-19T05:21:10;98792.53;;;7.50;84.53
60337;BME280;46978;50.288;28.624;2023-04-19T05:22:12;98785.61;;;7.52;83.79
60337;BME280;46978;50.288;28.624;2023-04-19T05:23:14;98792.48;;;7.53;84.45
60337;BME280;46978;50.288;28.624;2023-04-19T05:24:16;98807.13;;;7.51;84.94
60337;BME280;46978;50.288;28.624;2023-04-19T05:25:18;98801.98;;;7.49;85.46
60337;BME280;46978;50.288;28.624;2023-04-19T05:26:20;98796.75;;;7.54;85.80
60337;BME280;46978;50.288;28.624;2023-04-19T05:27:22;98801.00;;;7.58;85.70
60337;BME280;46978;50.288;28.624;2023-04-19T05:28:23;98804.41;;;7.60;86.17